DAL2311 KCVG-KATL
Flight info
| Callsign | DAL2311 |
|---|---|
| Flight time | N/A |
| Altitude | 38000 |
| Route | CHCLL6 RAMRD HITMN/N0439F390 NEWBB IHAVE MTHEW CHPPR1 |
| Aircraft | A20N/M-SDE2E3FGHIRWXY/LB1 |
Departure
| Time | 2026-04-29 23:57 |
|---|---|
| Airport | Cincinnati Northern Kentucky International Airport (KCVG) |
Arrival
| Time | N/A |
|---|---|
| Airport | Hartsfield Jackson Atlanta International Airport (KATL) |
| Time | Latitude | Longitude | Altitude | Speed | Heading |
|---|---|---|---|---|---|
| 2026-04-29 23:31 | 39.05096 | -84.65584 | 878 ft | 0 kts | 180° |
| 2026-04-29 23:46 | 39.05103 | -84.65584 | 879 ft | 1 kts | 180° |
| 2026-04-29 23:46 | 39.05112 | -84.65584 | 878 ft | 2 kts | 172° |
| 2026-04-29 23:46 | 39.05127 | -84.65589 | 878 ft | 2 kts | 154° |
| 2026-04-29 23:46 | 39.05139 | -84.65599 | 878 ft | 2 kts | 137° |
| 2026-04-29 23:47 | 39.05149 | -84.65613 | 878 ft | 2 kts | 121° |
| 2026-04-29 23:47 | 39.05152 | -84.65620 | 878 ft | 2 kts | 115° |
| 2026-04-29 23:47 | 39.05156 | -84.65637 | 877 ft | 2 kts | 99° |
| 2026-04-29 23:47 | 39.05156 | -84.65640 | 877 ft | 2 kts | 96° |
| 2026-04-29 23:48 | 39.05157 | -84.65642 | 877 ft | 1 kts | 94° |
| 2026-04-29 23:48 | 39.05157 | -84.65649 | 877 ft | 1 kts | 87° |
| 2026-04-29 23:48 | 39.05157 | -84.65654 | 877 ft | 0 kts | 89° |
| 2026-04-29 23:50 | 39.05157 | -84.65650 | 877 ft | 0 kts | 88° |
| 2026-04-29 23:51 | 39.05157 | -84.65634 | 877 ft | 2 kts | 89° |
| 2026-04-29 23:51 | 39.05157 | -84.65582 | 878 ft | 7 kts | 90° |
| 2026-04-29 23:51 | 39.05157 | -84.65546 | 879 ft | 7 kts | 89° |
| 2026-04-29 23:51 | 39.05157 | -84.65476 | 880 ft | 7 kts | 90° |
| 2026-04-29 23:52 | 39.05157 | -84.65405 | 882 ft | 8 kts | 90° |
| 2026-04-29 23:52 | 39.05156 | -84.65320 | 883 ft | 9 kts | 90° |
| 2026-04-29 23:52 | 39.05156 | -84.65224 | 883 ft | 11 kts | 90° |
| 2026-04-29 23:52 | 39.05156 | -84.65134 | 884 ft | 4 kts | 89° |
| 2026-04-29 23:53 | 39.05156 | -84.65110 | 885 ft | 1 kts | 90° |
| 2026-04-29 23:53 | 39.05156 | -84.65108 | 885 ft | 0 kts | 91° |
| 2026-04-29 23:53 | 39.05156 | -84.65107 | 885 ft | 0 kts | 91° |
| 2026-04-29 23:53 | 39.05156 | -84.65103 | 885 ft | 0 kts | 91° |
| 2026-04-29 23:54 | 39.05156 | -84.65101 | 885 ft | 0 kts | 91° |
| 2026-04-29 23:54 | 39.05153 | -84.65095 | 885 ft | 2 kts | 123° |
| 2026-04-29 23:54 | 39.05129 | -84.65073 | 886 ft | 7 kts | 160° |
| 2026-04-29 23:54 | 39.05064 | -84.65064 | 887 ft | 10 kts | 181° |
| 2026-04-29 23:55 | 39.04987 | -84.65066 | 888 ft | 11 kts | 180° |
| 2026-04-29 23:55 | 39.04903 | -84.65066 | 887 ft | 13 kts | 180° |
| 2026-04-29 23:55 | 39.04828 | -84.65077 | 885 ft | 10 kts | 231° |
| 2026-04-29 23:55 | 39.04810 | -84.65176 | 883 ft | 13 kts | 270° |
| 2026-04-29 23:56 | 39.04794 | -84.65284 | 881 ft | 8 kts | 220° |
| 2026-04-29 23:56 | 39.04745 | -84.65301 | 881 ft | 7 kts | 181° |
| 2026-04-29 23:56 | 39.04686 | -84.65299 | 881 ft | 9 kts | 179° |
| 2026-04-29 23:56 | 39.04633 | -84.65335 | 880 ft | 10 kts | 244° |
| 2026-04-29 23:57 | 39.04626 | -84.65467 | 877 ft | 33 kts | 269° |
| 2026-04-29 23:57 | 39.04627 | -84.66112 | 861 ft | 108 kts | 270° |
| 2026-04-29 23:57 | 39.04615 | -84.67293 | 1035 ft | 145 kts | 271° |
| 2026-04-29 23:57 | 39.04536 | -84.68612 | 1561 ft | 157 kts | 270° |
| 2026-04-29 23:58 | 39.04443 | -84.70023 | 2286 ft | 161 kts | 272° |
| 2026-04-29 23:58 | 39.04372 | -84.71437 | 2997 ft | 166 kts | 273° |
| 2026-04-29 23:58 | 39.04330 | -84.72977 | 3518 ft | 183 kts | 274° |
| 2026-04-29 23:58 | 39.04313 | -84.74769 | 3825 ft | 215 kts | 276° |
| 2026-04-29 23:59 | 39.04374 | -84.76741 | 4409 ft | 234 kts | 274° |
| 2026-04-29 23:59 | 39.04032 | -84.78896 | 4975 ft | 263 kts | 246° |
| 2026-04-29 23:59 | 39.02907 | -84.80769 | 5791 ft | 280 kts | 224° |
| 2026-04-29 23:59 | 39.01150 | -84.81900 | 6817 ft | 290 kts | 200° |
| 2026-04-30 00:00 | 38.99237 | -84.82461 | 8151 ft | 280 kts | 195° |
| 2026-04-30 00:00 | 38.97387 | -84.82796 | 9486 ft | 266 kts | 194° |
| 2026-04-30 00:00 | 38.95598 | -84.83059 | 10589 ft | 260 kts | 195° |
| 2026-04-30 00:00 | 38.93794 | -84.83363 | 11405 ft | 264 kts | 197° |
| 2026-04-30 00:01 | 38.91984 | -84.83823 | 11936 ft | 275 kts | 204° |
| 2026-04-30 00:01 | 38.90103 | -84.84543 | 12320 ft | 293 kts | 205° |
| 2026-04-30 00:01 | 38.88090 | -84.85311 | 12868 ft | 306 kts | 205° |
| 2026-04-30 00:01 | 38.86007 | -84.86099 | 13276 ft | 324 kts | 204° |
| 2026-04-30 00:02 | 38.83773 | -84.86880 | 13643 ft | 342 kts | 203° |
| 2026-04-30 00:02 | 38.81440 | -84.87699 | 14201 ft | 352 kts | 204° |
| 2026-04-30 00:02 | 38.79037 | -84.88466 | 15037 ft | 356 kts | 201° |
| 2026-04-30 00:02 | 38.76608 | -84.89140 | 15719 ft | 362 kts | 200° |
| 2026-04-30 00:03 | 38.74117 | -84.89806 | 16346 ft | 366 kts | 203° |
| 2026-04-30 00:03 | 38.71821 | -84.91019 | 16860 ft | 358 kts | 219° |
| 2026-04-30 00:03 | 38.69817 | -84.92921 | 17264 ft | 361 kts | 227° |
| 2026-04-30 00:03 | 38.67964 | -84.95059 | 17987 ft | 360 kts | 230° |
| 2026-04-30 00:04 | 38.66131 | -84.97238 | 18892 ft | 357 kts | 230° |
| 2026-04-30 00:04 | 38.64303 | -84.99361 | 19722 ft | 355 kts | 229° |
| 2026-04-30 00:04 | 38.63479 | -85.00311 | 20114 ft | 353 kts | 229° |
| 2026-04-30 00:05 | 38.61830 | -85.02145 | 21104 ft | 344 kts | 229° |
| 2026-04-30 00:05 | 38.60050 | -85.04082 | 22042 ft | 338 kts | 228° |
| 2026-04-30 00:05 | 38.58215 | -85.06010 | 22637 ft | 342 kts | 227° |
| 2026-04-30 00:05 | 38.56329 | -85.07901 | 22971 ft | 352 kts | 227° |
| 2026-04-30 00:06 | 38.54390 | -85.09948 | 23138 ft | 365 kts | 227° |
| 2026-04-30 00:06 | 38.52439 | -85.12051 | 23613 ft | 368 kts | 227° |
| 2026-04-30 00:06 | 38.50492 | -85.14132 | 24248 ft | 367 kts | 228° |
| 2026-04-30 00:06 | 38.48564 | -85.16251 | 24828 ft | 367 kts | 229° |
| 2026-04-30 00:07 | 38.46653 | -85.18438 | 25205 ft | 367 kts | 230° |
| 2026-04-30 00:07 | 38.44792 | -85.20608 | 25943 ft | 364 kts | 230° |
| 2026-04-30 00:07 | 38.42858 | -85.22751 | 26492 ft | 366 kts | 229° |
| 2026-04-30 00:07 | 38.40916 | -85.24753 | 27138 ft | 364 kts | 228° |
| 2026-04-30 00:08 | 38.38907 | -85.26756 | 27580 ft | 366 kts | 227° |
| 2026-04-30 00:08 | 38.36891 | -85.28810 | 27505 ft | 378 kts | 229° |
| 2026-04-30 00:08 | 38.34900 | -85.31004 | 28000 ft | 376 kts | 230° |
| 2026-04-30 00:08 | 38.32944 | -85.33186 | 28382 ft | 379 kts | 230° |
| 2026-04-30 00:09 | 38.30931 | -85.35407 | 28754 ft | 381 kts | 230° |
| 2026-04-30 00:09 | 38.28925 | -85.37593 | 29133 ft | 383 kts | 230° |
| 2026-04-30 00:09 | 38.26892 | -85.39792 | 29488 ft | 385 kts | 230° |
| 2026-04-30 00:09 | 38.24852 | -85.41984 | 29836 ft | 386 kts | 230° |
| 2026-04-30 00:10 | 38.22790 | -85.44188 | 30153 ft | 387 kts | 230° |
| 2026-04-30 00:10 | 38.20707 | -85.46409 | 30452 ft | 389 kts | 230° |
| 2026-04-30 00:10 | 38.18636 | -85.48608 | 30811 ft | 389 kts | 230° |
| 2026-04-30 00:10 | 38.16554 | -85.50819 | 31217 ft | 387 kts | 230° |
| 2026-04-30 00:11 | 38.14499 | -85.52998 | 31601 ft | 386 kts | 231° |
| 2026-04-30 00:11 | 38.12452 | -85.55164 | 31940 ft | 385 kts | 231° |
| 2026-04-30 00:11 | 38.10382 | -85.57354 | 32277 ft | 384 kts | 230° |
| 2026-04-30 00:11 | 38.08335 | -85.59521 | 32610 ft | 384 kts | 231° |
| 2026-04-30 00:12 | 38.06301 | -85.61670 | 32931 ft | 383 kts | 231° |
| 2026-04-30 00:12 | 38.04251 | -85.63834 | 33239 ft | 382 kts | 231° |
| 2026-04-30 00:12 | 38.02219 | -85.65977 | 33553 ft | 381 kts | 231° |
| 2026-04-30 00:12 | 38.00177 | -85.68130 | 33881 ft | 380 kts | 230° |
| 2026-04-30 00:13 | 37.98163 | -85.70255 | 34169 ft | 379 kts | 231° |
| 2026-04-30 00:13 | 37.96138 | -85.72387 | 34426 ft | 379 kts | 231° |
| 2026-04-30 00:13 | 37.94107 | -85.74525 | 34684 ft | 378 kts | 231° |
| 2026-04-30 00:13 | 37.92068 | -85.76667 | 34921 ft | 379 kts | 231° |
| 2026-04-30 00:14 | 37.90069 | -85.78770 | 35156 ft | 378 kts | 231° |
| 2026-04-30 00:14 | 37.88015 | -85.80926 | 35398 ft | 378 kts | 231° |
| 2026-04-30 00:14 | 37.86001 | -85.83036 | 35629 ft | 377 kts | 231° |
| 2026-04-30 00:14 | 37.83995 | -85.85126 | 35873 ft | 378 kts | 230° |
| 2026-04-30 00:15 | 37.81906 | -85.87145 | 36150 ft | 381 kts | 228° |
| 2026-04-30 00:15 | 37.79702 | -85.89075 | 36710 ft | 382 kts | 225° |
| 2026-04-30 00:15 | 37.77458 | -85.90841 | 36989 ft | 384 kts | 223° |
| 2026-04-30 00:15 | 37.75126 | -85.92488 | 37248 ft | 387 kts | 220° |
| 2026-04-30 00:16 | 37.72707 | -85.94040 | 37497 ft | 387 kts | 220° |
| 2026-04-30 00:16 | 37.70306 | -85.95577 | 37699 ft | 387 kts | 220° |
| 2026-04-30 00:16 | 37.67932 | -85.97099 | 37849 ft | 387 kts | 220° |
| 2026-04-30 00:16 | 37.65516 | -85.98644 | 37972 ft | 389 kts | 220° |
| 2026-04-30 00:17 | 37.63111 | -86.00179 | 37980 ft | 389 kts | 220° |
| 2026-04-30 00:17 | 37.58265 | -86.03258 | 37979 ft | 389 kts | 220° |
| 2026-04-30 00:18 | 37.53456 | -86.06307 | 37982 ft | 388 kts | 220° |
| 2026-04-30 00:18 | 37.48627 | -86.09363 | 37974 ft | 389 kts | 220° |
| 2026-04-30 00:19 | 37.45105 | -86.11589 | 37978 ft | 388 kts | 220° |
| 2026-04-30 00:19 | 37.42708 | -86.13105 | 37752 ft | 389 kts | 220° |
| 2026-04-30 00:19 | 37.40258 | -86.14649 | 37483 ft | 389 kts | 220° |
| 2026-04-30 00:19 | 37.37844 | -86.16170 | 37216 ft | 388 kts | 220° |
| 2026-04-30 00:20 | 37.35450 | -86.17677 | 37000 ft | 387 kts | 220° |
| 2026-04-30 00:20 | 37.30611 | -86.20725 | 36980 ft | 388 kts | 220° |
| 2026-04-30 00:21 | 37.25787 | -86.23757 | 36978 ft | 388 kts | 220° |